sensor_id;sensor_type;location;lat;lon;timestamp;P1;durP1;ratioP1;P2;durP2;ratioP2
60016;SDS011;45869;52.698;6.210;2023-05-10T00:00:42;9.63;;;8.07;;
60016;SDS011;45869;52.698;6.210;2023-05-10T00:03:09;10.75;;;8.13;;
60016;SDS011;45869;52.698;6.210;2023-05-10T00:05:35;10.98;;;9.23;;
60016;SDS011;45869;52.698;6.210;2023-05-10T00:08:01;10.43;;;7.88;;
60016;SDS011;45869;52.698;6.210;2023-05-10T00:10:27;8.15;;;7.18;;
60016;SDS011;45869;52.698;6.210;2023-05-10T00:12:53;9.00;;;7.80;;
60016;SDS011;45869;52.698;6.210;2023-05-10T00:15:22;8.82;;;7.57;;
60016;SDS011;45869;52.698;6.210;2023-05-10T00:17:48;7.35;;;6.38;;
60016;SDS011;45869;52.698;6.210;2023-05-10T00:20:14;6.55;;;5.07;;
60016;SDS011;45869;52.698;6.210;2023-05-10T00:22:42;7.35;;;5.20;;
60016;SDS011;45869;52.698;6.210;2023-05-10T00:25:08;6.07;;;5.25;;
60016;SDS011;45869;52.698;6.210;2023-05-10T00:27:35;6.05;;;4.82;;
60016;SDS011;45869;52.698;6.210;2023-05-10T00:30:01;6.43;;;4.38;;
60016;SDS011;45869;52.698;6.210;2023-05-10T00:32:27;5.72;;;4.35;;
60016;SDS011;45869;52.698;6.210;2023-05-10T00:34:53;5.53;;;4.10;;
60016;SDS011;45869;52.698;6.210;2023-05-10T00:37:26;7.25;;;4.85;;
60016;SDS011;45869;52.698;6.210;2023-05-10T00:39:52;7.90;;;4.80;;
60016;SDS011;45869;52.698;6.210;2023-05-10T00:42:18;5.18;;;4.45;;
60016;SDS011;45869;52.698;6.210;2023-05-10T00:44:44;5.40;;;4.70;;
60016;SDS011;45869;52.698;6.210;2023-05-10T00:47:11;7.95;;;4.65;;
60016;SDS011;45869;52.698;6.210;2023-05-10T00:49:37;6.00;;;3.83;;
60016;SDS011;45869;52.698;6.210;2023-05-10T00:52:03;5.80;;;3.63;;
60016;SDS011;45869;52.698;6.210;2023-05-10T00:54:29;4.22;;;3.63;;
60016;SDS011;45869;52.698;6.210;2023-05-10T00:56:55;5.10;;;4.30;;
60016;SDS011;45869;52.698;6.210;2023-05-10T00:59:22;4.32;;;3.83;;
60016;SDS011;45869;52.698;6.210;2023-05-10T01:01:48;3.90;;;3.45;;
60016;SDS011;45869;52.698;6.210;2023-05-10T01:04:17;4.85;;;3.70;;
60016;SDS011;45869;52.698;6.210;2023-05-10T01:06:45;4.00;;;3.28;;
60016;SDS011;45869;52.698;6.210;2023-05-10T01:09:17;4.50;;;3.40;;
60016;SDS011;45869;52.698;6.210;2023-05-10T01:11:43;4.68;;;2.80;;
60016;SDS011;45869;52.698;6.210;2023-05-10T01:14:10;3.90;;;3.35;;
60016;SDS011;45869;52.698;6.210;2023-05-10T01:16:40;4.07;;;3.50;;
60016;SDS011;45869;52.698;6.210;2023-05-10T01:19:06;4.15;;;2.92;;
60016;SDS011;45869;52.698;6.210;2023-05-10T01:21:48;4.35;;;3.15;;
60016;SDS011;45869;52.698;6.210;2023-05-10T01:27:02;4.25;;;2.53;;
60016;SDS011;45869;52.698;6.210;2023-05-10T01:34:47;3.90;;;3.10;;
60016;SDS011;45869;52.698;6.210;2023-05-10T01:37:20;4.32;;;3.30;;
60016;SDS011;45869;52.698;6.210;2023-05-10T01:39:49;3.70;;;2.70;;
60016;SDS011;45869;52.698;6.210;2023-05-10T01:42:21;4.18;;;2.92;;
60016;SDS011;45869;52.698;6.210;2023-05-10T01:44:57;5.05;;;2.80;;
60016;SDS011;45869;52.698;6.210;2023-05-10T01:47:28;3.42;;;2.40;;
60016;SDS011;45869;52.698;6.210;2023-05-10T01:49:57;4.15;;;2.70;;
60016;SDS011;45869;52.698;6.210;2023-05-10T01:52:30;4.82;;;3.20;;
60016;SDS011;45869;52.698;6.210;2023-05-10T01:54:59;3.58;;;2.88;;
60016;SDS011;45869;52.698;6.210;2023-05-10T01:57:27;4.50;;;3.28;;
60016;SDS011;45869;52.698;6.210;2023-05-10T01:59:53;4.47;;;3.20;;
60016;SDS011;45869;52.698;6.210;2023-05-10T02:02:20;3.83;;;3.00;;
60016;SDS011;45869;52.698;6.210;2023-05-10T02:04:50;4.70;;;3.05;;
60016;SDS011;45869;52.698;6.210;2023-05-10T02:07:16;3.67;;;2.80;;
60016;SDS011;45869;52.698;6.210;2023-05-10T02:09:44;4.10;;;3.20;;
60016;SDS011;45869;52.698;6.210;2023-05-10T02:12:13;3.80;;;2.85;;
60016;SDS011;45869;52.698;6.210;2023-05-10T02:14:39;3.63;;;2.83;;
60016;SDS011;45869;52.698;6.210;2023-05-10T02:17:07;4.22;;;3.47;;
60016;SDS011;45869;52.698;6.210;2023-05-10T02:19:33;5.13;;;3.53;;
60016;SDS011;45869;52.698;6.210;2023-05-10T02:22:03;4.53;;;3.50;;
60016;SDS011;45869;52.698;6.210;2023-05-10T02:24:32;3.92;;;3.03;;
60016;SDS011;45869;52.698;6.210;2023-05-10T02:26:59;4.85;;;3.38;;
60016;SDS011;45869;52.698;6.210;2023-05-10T02:29:26;4.95;;;3.60;;
60016;SDS011;45869;52.698;6.210;2023-05-10T02:31:52;4.85;;;3.50;;
60016;SDS011;45869;52.698;6.210;2023-05-10T02:34:23;5.30;;;3.72;;
60016;SDS011;45869;52.698;6.210;2023-05-10T02:36:51;4.82;;;3.90;;
60016;SDS011;45869;52.698;6.210;2023-05-10T02:39:18;4.70;;;3.80;;
60016;SDS011;45869;52.698;6.210;2023-05-10T02:41:45;5.13;;;3.83;;
60016;SDS011;45869;52.698;6.210;2023-05-10T02:44:18;6.53;;;4.20;;
60016;SDS011;45869;52.698;6.210;2023-05-10T02:46:47;6.28;;;3.92;;
60016;SDS011;45869;52.698;6.210;2023-05-10T02:49:14;5.28;;;3.22;;
60016;SDS011;45869;52.698;6.210;2023-05-10T02:51:44;5.75;;;3.75;;
60016;SDS011;45869;52.698;6.210;2023-05-10T02:54:18;4.88;;;3.70;;
60016;SDS011;45869;52.698;6.210;2023-05-10T02:57:04;4.43;;;3.63;;
60016;SDS011;45869;52.698;6.210;2023-05-10T02:59:31;5.32;;;3.47;;
60016;SDS011;45869;52.698;6.210;2023-05-10T03:01:58;7.65;;;3.78;;
60016;SDS011;45869;52.698;6.210;2023-05-10T03:04:30;7.70;;;4.38;;
60016;SDS011;45869;52.698;6.210;2023-05-10T03:06:56;10.00;;;4.47;;
60016;SDS011;45869;52.698;6.210;2023-05-10T03:09:23;6.32;;;4.55;;
60016;SDS011;45869;52.698;6.210;2023-05-10T03:11:56;6.20;;;4.32;;
60016;SDS011;45869;52.698;6.210;2023-05-10T03:14:45;5.63;;;4.38;;
60016;SDS011;45869;52.698;6.210;2023-05-10T03:17:20;6.97;;;4.30;;
60016;SDS011;45869;52.698;6.210;2023-05-10T03:19:53;5.32;;;4.57;;
60016;SDS011;45869;52.698;6.210;2023-05-10T03:22:24;6.80;;;4.40;;
60016;SDS011;45869;52.698;6.210;2023-05-10T03:24:51;6.28;;;4.68;;
60016;SDS011;45869;52.698;6.210;2023-05-10T03:27:19;6.65;;;4.78;;
60016;SDS011;45869;52.698;6.210;2023-05-10T03:29:46;6.63;;;5.38;;
60016;SDS011;45869;52.698;6.210;2023-05-10T03:32:12;5.38;;;3.97;;
60016;SDS011;45869;52.698;6.210;2023-05-10T03:34:41;5.97;;;4.25;;
60016;SDS011;45869;52.698;6.210;2023-05-10T03:37:08;4.88;;;3.45;;
60016;SDS011;45869;52.698;6.210;2023-05-10T03:39:37;3.85;;;2.90;;
60016;SDS011;45869;52.698;6.210;2023-05-10T03:42:03;4.97;;;3.10;;
60016;SDS011;45869;52.698;6.210;2023-05-10T03:44:29;6.07;;;3.50;;
60016;SDS011;45869;52.698;6.210;2023-05-10T03:46:58;5.10;;;3.60;;
60016;SDS011;45869;52.698;6.210;2023-05-10T03:49:24;4.55;;;3.05;;
60016;SDS011;45869;52.698;6.210;2023-05-10T03:51:50;4.80;;;3.22;;
60016;SDS011;45869;52.698;6.210;2023-05-10T03:54:16;4.85;;;2.90;;
60016;SDS011;45869;52.698;6.210;2023-05-10T03:56:42;6.82;;;3.22;;
60016;SDS011;45869;52.698;6.210;2023-05-10T03:59:15;3.92;;;2.70;;
60016;SDS011;45869;52.698;6.210;2023-05-10T04:01:41;3.63;;;2.70;;
60016;SDS011;45869;52.698;6.210;2023-05-10T04:04:10;5.25;;;3.22;;
60016;SDS011;45869;52.698;6.210;2023-05-10T04:06:37;6.97;;;4.15;;
60016;SDS011;45869;52.698;6.210;2023-05-10T04:09:06;6.07;;;5.00;;
60016;SDS011;45869;52.698;6.210;2023-05-10T04:11:33;7.22;;;4.75;;
60016;SDS011;45869;52.698;6.210;2023-05-10T04:13:59;6.75;;;4.80;;
60016;SDS011;45869;52.698;6.210;2023-05-10T04:16:25;6.50;;;4.60;;
60016;SDS011;45869;52.698;6.210;2023-05-10T04:18:51;8.25;;;4.60;;
60016;SDS011;45869;52.698;6.210;2023-05-10T04:21:17;5.72;;;4.40;;
60016;SDS011;45869;52.698;6.210;2023-05-10T04:23:43;6.78;;;4.38;;
60016;SDS011;45869;52.698;6.210;2023-05-10T04:26:09;6.35;;;4.38;;
60016;SDS011;45869;52.698;6.210;2023-05-10T04:28:38;6.15;;;4.13;;
60016;SDS011;45869;52.698;6.210;2023-05-10T04:31:04;8.40;;;4.38;;
60016;SDS011;45869;52.698;6.210;2023-05-10T04:33:31;7.07;;;3.97;;
60016;SDS011;45869;52.698;6.210;2023-05-10T04:35:57;8.10;;;4.70;;
60016;SDS011;45869;52.698;6.210;2023-05-10T04:38:26;6.80;;;4.85;;
60016;SDS011;45869;52.698;6.210;2023-05-10T04:41:03;6.38;;;4.07;;
60016;SDS011;45869;52.698;6.210;2023-05-10T04:43:29;6.63;;;4.20;;
60016;SDS011;45869;52.698;6.210;2023-05-10T04:45:58;5.72;;;4.55;;
60016;SDS011;45869;52.698;6.210;2023-05-10T04:48:27;9.00;;;5.28;;
60016;SDS011;45869;52.698;6.210;2023-05-10T04:50:59;8.85;;;5.72;;
60016;SDS011;45869;52.698;6.210;2023-05-10T04:53:25;9.40;;;5.53;;
60016;SDS011;45869;52.698;6.210;2023-05-10T04:55:51;7.38;;;5.20;;
60016;SDS011;45869;52.698;6.210;2023-05-10T04:58:17;6.55;;;4.68;;
60016;SDS011;45869;52.698;6.210;2023-05-10T05:00:46;8.23;;;4.93;;
60016;SDS011;45869;52.698;6.210;2023-05-10T05:03:12;10.55;;;5.03;;
60016;SDS011;45869;52.698;6.210;2023-05-10T05:05:41;8.18;;;5.25;;
60016;SDS011;45869;52.698;6.210;2023-05-10T05:08:07;8.55;;;5.03;;
60016;SDS011;45869;52.698;6.210;2023-05-10T05:10:33;10.27;;;5.00;;
60016;SDS011;45869;52.698;6.210;2023-05-10T05:13:00;8.55;;;5.43;;
60016;SDS011;45869;52.698;6.210;2023-05-10T05:15:26;8.73;;;4.93;;
60016;SDS011;45869;52.698;6.210;2023-05-10T05:17:52;10.05;;;5.65;;
60016;SDS011;45869;52.698;6.210;2023-05-10T05:20:18;8.73;;;5.85;;
60016;SDS011;45869;52.698;6.210;2023-05-10T05:22:44;6.95;;;5.13;;
60016;SDS011;45869;52.698;6.210;2023-05-10T05:25:10;8.43;;;5.28;;
60016;SDS011;45869;52.698;6.210;2023-05-10T05:27:40;9.60;;;6.13;;
60016;SDS011;45869;52.698;6.210;2023-05-10T05:30:06;10.75;;;6.55;;
60016;SDS011;45869;52.698;6.210;2023-05-10T05:32:32;13.50;;;7.35;;
60016;SDS011;45869;52.698;6.210;2023-05-10T05:34:58;8.45;;;6.18;;
60016;SDS011;45869;52.698;6.210;2023-05-10T05:37:24;12.25;;;7.32;;
60016;SDS011;45869;52.698;6.210;2023-05-10T05:39:50;10.98;;;6.68;;
60016;SDS011;45869;52.698;6.210;2023-05-10T05:42:16;10.60;;;6.60;;
60016;SDS011;45869;52.698;6.210;2023-05-10T05:44:46;12.23;;;7.45;;
60016;SDS011;45869;52.698;6.210;2023-05-10T05:47:12;11.60;;;7.05;;
60016;SDS011;45869;52.698;6.210;2023-05-10T05:49:38;11.05;;;6.90;;
60016;SDS011;45869;52.698;6.210;2023-05-10T05:52:07;10.27;;;6.65;;
60016;SDS011;45869;52.698;6.210;2023-05-10T05:54:33;10.40;;;6.45;;
60016;SDS011;45869;52.698;6.210;2023-05-10T05:57:00;11.48;;;7.25;;
60016;SDS011;45869;52.698;6.210;2023-05-10T05:59:26;10.63;;;6.65;;
60016;SDS011;45869;52.698;6.210;2023-05-10T06:01:52;12.13;;;7.55;;
60016;SDS011;45869;52.698;6.210;2023-05-10T06:04:18;11.82;;;6.88;;
60016;SDS011;45869;52.698;6.210;2023-05-10T06:06:44;9.48;;;6.65;;
60016;SDS011;45869;52.698;6.210;2023-05-10T06:09:10;9.43;;;6.70;;
60016;SDS011;45869;52.698;6.210;2023-05-10T06:11:37;11.90;;;6.90;;
60016;SDS011;45869;52.698;6.210;2023-05-10T06:14:06;11.25;;;7.13;;
60016;SDS011;45869;52.698;6.210;2023-05-10T06:16:38;11.00;;;6.95;;
60016;SDS011;45869;52.698;6.210;2023-05-10T06:19:07;10.70;;;7.05;;
60016;SDS011;45869;52.698;6.210;2023-05-10T06:21:33;11.70;;;7.30;;
60016;SDS011;45869;52.698;6.210;2023-05-10T06:23:59;10.18;;;6.60;;
60016;SDS011;45869;52.698;6.210;2023-05-10T06:26:25;10.35;;;6.75;;
60016;SDS011;45869;52.698;6.210;2023-05-10T06:28:51;11.35;;;6.60;;
60016;SDS011;45869;52.698;6.210;2023-05-10T06:31:20;8.70;;;6.45;;
60016;SDS011;45869;52.698;6.210;2023-05-10T06:33:46;10.48;;;6.55;;
60016;SDS011;45869;52.698;6.210;2023-05-10T06:36:12;10.75;;;6.40;;
60016;SDS011;45869;52.698;6.210;2023-05-10T06:38:38;11.07;;;6.68;;
60016;SDS011;45869;52.698;6.210;2023-05-10T06:41:04;10.00;;;6.00;;
60016;SDS011;45869;52.698;6.210;2023-05-10T06:43:31;10.20;;;6.40;;
60016;SDS011;45869;52.698;6.210;2023-05-10T06:45:57;9.02;;;5.78;;
60016;SDS011;45869;52.698;6.210;2023-05-10T06:48:23;10.43;;;6.25;;
60016;SDS011;45869;52.698;6.210;2023-05-10T06:50:49;11.05;;;6.32;;
60016;SDS011;45869;52.698;6.210;2023-05-10T06:53:15;10.30;;;6.25;;
60016;SDS011;45869;52.698;6.210;2023-05-10T06:55:41;10.35;;;6.43;;
60016;SDS011;45869;52.698;6.210;2023-05-10T06:58:07;11.75;;;7.28;;
60016;SDS011;45869;52.698;6.210;2023-05-10T07:00:37;10.57;;;6.88;;
60016;SDS011;45869;52.698;6.210;2023-05-10T07:03:08;11.77;;;6.95;;
60016;SDS011;45869;52.698;6.210;2023-05-10T07:05:35;12.52;;;6.93;;
60016;SDS011;45869;52.698;6.210;2023-05-10T07:08:01;9.57;;;6.28;;
60016;SDS011;45869;52.698;6.210;2023-05-10T07:10:27;10.68;;;6.70;;
60016;SDS011;45869;52.698;6.210;2023-05-10T07:12:53;10.00;;;6.13;;
60016;SDS011;45869;52.698;6.210;2023-05-10T07:15:31;9.88;;;6.38;;
60016;SDS011;45869;52.698;6.210;2023-05-10T07:17:58;11.60;;;6.20;;
60016;SDS011;45869;52.698;6.210;2023-05-10T07:20:24;9.07;;;5.80;;
60016;SDS011;45869;52.698;6.210;2023-05-10T07:22:50;8.40;;;5.10;;
60016;SDS011;45869;52.698;6.210;2023-05-10T07:25:16;8.75;;;4.68;;
60016;SDS011;45869;52.698;6.210;2023-05-10T07:27:42;7.25;;;4.78;;
60016;SDS011;45869;52.698;6.210;2023-05-10T07:30:08;7.07;;;3.95;;
60016;SDS011;45869;52.698;6.210;2023-05-10T07:32:35;6.20;;;4.30;;
60016;SDS011;45869;52.698;6.210;2023-05-10T07:35:01;7.40;;;4.13;;
60016;SDS011;45869;52.698;6.210;2023-05-10T07:37:27;6.70;;;4.13;;
60016;SDS011;45869;52.698;6.210;2023-05-10T07:39:54;6.50;;;3.85;;
60016;SDS011;45869;52.698;6.210;2023-05-10T07:42:21;5.32;;;3.40;;
60016;SDS011;45869;52.698;6.210;2023-05-10T07:44:47;4.30;;;2.28;;
60016;SDS011;45869;52.698;6.210;2023-05-10T07:47:15;2.80;;;1.80;;
60016;SDS011;45869;52.698;6.210;2023-05-10T07:49:41;2.33;;;1.50;;
60016;SDS011;45869;52.698;6.210;2023-05-10T07:52:08;2.85;;;1.52;;
60016;SDS011;45869;52.698;6.210;2023-05-10T07:54:34;3.15;;;1.52;;
60016;SDS011;45869;52.698;6.210;2023-05-10T07:57:00;3.40;;;1.23;;
60016;SDS011;45869;52.698;6.210;2023-05-10T07:59:26;3.08;;;1.50;;
60016;SDS011;45869;52.698;6.210;2023-05-10T08:01:52;3.38;;;2.10;;
60016;SDS011;45869;52.698;6.210;2023-05-10T08:04:18;3.67;;;2.05;;
60016;SDS011;45869;52.698;6.210;2023-05-10T08:06:44;3.33;;;2.17;;
60016;SDS011;45869;52.698;6.210;2023-05-10T08:09:10;3.72;;;2.05;;
60016;SDS011;45869;52.698;6.210;2023-05-10T08:11:36;5.07;;;2.63;;
60016;SDS011;45869;52.698;6.210;2023-05-10T08:14:02;6.25;;;3.28;;
60016;SDS011;45869;52.698;6.210;2023-05-10T08:16:28;4.50;;;2.90;;
60016;SDS011;45869;52.698;6.210;2023-05-10T08:18:54;5.40;;;3.40;;
60016;SDS011;45869;52.698;6.210;2023-05-10T08:21:20;7.15;;;3.85;;
60016;SDS011;45869;52.698;6.210;2023-05-10T08:23:46;4.78;;;3.20;;
60016;SDS011;45869;52.698;6.210;2023-05-10T08:26:13;5.45;;;3.15;;
60016;SDS011;45869;52.698;6.210;2023-05-10T08:28:39;4.65;;;2.90;;
60016;SDS011;45869;52.698;6.210;2023-05-10T08:31:05;5.93;;;3.88;;
60016;SDS011;45869;52.698;6.210;2023-05-10T08:33:31;6.43;;;4.05;;
60016;SDS011;45869;52.698;6.210;2023-05-10T08:35:58;7.68;;;3.92;;
60016;SDS011;45869;52.698;6.210;2023-05-10T08:38:24;5.72;;;4.05;;
60016;SDS011;45869;52.698;6.210;2023-05-10T08:40:50;6.47;;;4.47;;
60016;SDS011;45869;52.698;6.210;2023-05-10T08:43:23;7.28;;;4.68;;
60016;SDS011;45869;52.698;6.210;2023-05-10T08:45:52;4.68;;;3.85;;
60016;SDS011;45869;52.698;6.210;2023-05-10T08:48:19;5.78;;;4.07;;
60016;SDS011;45869;52.698;6.210;2023-05-10T08:50:46;6.78;;;4.47;;
60016;SDS011;45869;52.698;6.210;2023-05-10T08:53:14;5.90;;;3.63;;
60016;SDS011;45869;52.698;6.210;2023-05-10T08:55:40;4.75;;;3.83;;
60016;SDS011;45869;52.698;6.210;2023-05-10T08:58:07;6.88;;;4.40;;
60016;SDS011;45869;52.698;6.210;2023-05-10T09:00:34;6.20;;;3.55;;
60016;SDS011;45869;52.698;6.210;2023-05-10T09:03:02;5.57;;;4.45;;
60016;SDS011;45869;52.698;6.210;2023-05-10T09:05:28;6.43;;;4.50;;
60016;SDS011;45869;52.698;6.210;2023-05-10T09:07:57;7.90;;;4.78;;
60016;SDS011;45869;52.698;6.210;2023-05-10T09:10:25;6.65;;;4.68;;
60016;SDS011;45869;52.698;6.210;2023-05-10T09:12:52;8.73;;;5.65;;
60016;SDS011;45869;52.698;6.210;2023-05-10T09:15:19;7.45;;;5.68;;
60016;SDS011;45869;52.698;6.210;2023-05-10T09:17:46;7.18;;;5.20;;
60016;SDS011;45869;52.698;6.210;2023-05-10T09:20:12;11.43;;;6.30;;
60016;SDS011;45869;52.698;6.210;2023-05-10T09:22:38;10.48;;;6.53;;
60016;SDS011;45869;52.698;6.210;2023-05-10T09:25:06;7.15;;;5.78;;
60016;SDS011;45869;52.698;6.210;2023-05-10T09:27:32;8.00;;;5.50;;
60016;SDS011;45869;52.698;6.210;2023-05-10T09:29:58;7.82;;;5.38;;
60016;SDS011;45869;52.698;6.210;2023-05-10T09:32:41;6.68;;;5.40;;
60016;SDS011;45869;52.698;6.210;2023-05-10T09:37:55;9.35;;;5.70;;
60016;SDS011;45869;52.698;6.210;2023-05-10T09:40:21;7.07;;;5.40;;
60016;SDS011;45869;52.698;6.210;2023-05-10T09:42:54;7.47;;;5.68;;
60016;SDS011;45869;52.698;6.210;2023-05-10T09:45:22;10.07;;;7.15;;
60016;SDS011;45869;52.698;6.210;2023-05-10T09:47:48;10.60;;;6.80;;
60016;SDS011;45869;52.698;6.210;2023-05-10T09:50:21;8.93;;;6.65;;
60016;SDS011;45869;52.698;6.210;2023-05-10T09:58:10;9.98;;;6.85;;
60016;SDS011;45869;52.698;6.210;2023-05-10T10:00:37;9.43;;;6.50;;
60016;SDS011;45869;52.698;6.210;2023-05-10T10:03:13;8.60;;;5.43;;
60016;SDS011;45869;52.698;6.210;2023-05-10T10:06:01;8.63;;;5.85;;
60016;SDS011;45869;52.698;6.210;2023-05-10T10:08:36;8.23;;;6.55;;
60016;SDS011;45869;52.698;6.210;2023-05-10T10:11:05;10.43;;;6.78;;
60016;SDS011;45869;52.698;6.210;2023-05-10T10:13:31;8.65;;;6.25;;
60016;SDS011;45869;52.698;6.210;2023-05-10T10:15:57;9.05;;;6.72;;
60016;SDS011;45869;52.698;6.210;2023-05-10T10:18:23;9.95;;;7.45;;
60016;SDS011;45869;52.698;6.210;2023-05-10T10:20:54;9.70;;;7.53;;
60016;SDS011;45869;52.698;6.210;2023-05-10T10:23:24;10.65;;;7.78;;
60016;SDS011;45869;52.698;6.210;2023-05-10T10:25:50;11.57;;;8.18;;
60016;SDS011;45869;52.698;6.210;2023-05-10T10:30:47;11.02;;;7.85;;
60016;SDS011;45869;52.698;6.210;2023-05-10T10:36:00;10.45;;;6.45;;
60016;SDS011;45869;52.698;6.210;2023-05-10T10:38:35;9.00;;;6.32;;
60016;SDS011;45869;52.698;6.210;2023-05-10T10:41:27;8.00;;;6.53;;
60016;SDS011;45869;52.698;6.210;2023-05-10T10:49:37;10.25;;;6.18;;
60016;SDS011;45869;52.698;6.210;2023-05-10T10:55:00;8.90;;;6.72;;
60016;SDS011;45869;52.698;6.210;2023-05-10T10:57:26;8.27;;;6.07;;
60016;SDS011;45869;52.698;6.210;2023-05-10T11:08:12;9.43;;;7.07;;
60016;SDS011;45869;52.698;6.210;2023-05-10T11:10:39;9.80;;;7.20;;
60016;SDS011;45869;52.698;6.210;2023-05-10T11:13:06;9.45;;;7.10;;
60016;SDS011;45869;52.698;6.210;2023-05-10T11:15:39;10.35;;;7.43;;
60016;SDS011;45869;52.698;6.210;2023-05-10T11:18:18;9.75;;;7.00;;
60016;SDS011;45869;52.698;6.210;2023-05-10T11:20:49;9.30;;;7.30;;
60016;SDS011;45869;52.698;6.210;2023-05-10T11:23:15;9.95;;;7.63;;
60016;SDS011;45869;52.698;6.210;2023-05-10T11:25:43;10.60;;;7.70;;
60016;SDS011;45869;52.698;6.210;2023-05-10T11:28:09;10.48;;;7.82;;
60016;SDS011;45869;52.698;6.210;2023-05-10T11:30:35;9.90;;;7.57;;
60016;SDS011;45869;52.698;6.210;2023-05-10T11:33:02;11.35;;;7.47;;
60016;SDS011;45869;52.698;6.210;2023-05-10T11:35:28;10.25;;;7.95;;
60016;SDS011;45869;52.698;6.210;2023-05-10T11:37:54;10.35;;;7.53;;
60016;SDS011;45869;52.698;6.210;2023-05-10T11:40:23;8.25;;;6.40;;
60016;SDS011;45869;52.698;6.210;2023-05-10T11:42:49;9.30;;;6.95;;
60016;SDS011;45869;52.698;6.210;2023-05-10T11:45:15;8.77;;;6.65;;
60016;SDS011;45869;52.698;6.210;2023-05-10T11:47:42;11.50;;;6.30;;
60016;SDS011;45869;52.698;6.210;2023-05-10T11:50:09;8.55;;;6.18;;
60016;SDS011;45869;52.698;6.210;2023-05-10T11:52:35;10.13;;;6.90;;
60016;SDS011;45869;52.698;6.210;2023-05-10T11:55:04;8.18;;;6.07;;
60016;SDS011;45869;52.698;6.210;2023-05-10T11:57:30;9.05;;;6.40;;
60016;SDS011;45869;52.698;6.210;2023-05-10T12:00:03;8.18;;;5.90;;
60016;SDS011;45869;52.698;6.210;2023-05-10T12:02:30;8.95;;;5.95;;
60016;SDS011;45869;52.698;6.210;2023-05-10T12:04:56;9.20;;;6.20;;
60016;SDS011;45869;52.698;6.210;2023-05-10T12:07:22;8.20;;;6.57;;
60016;SDS011;45869;52.698;6.210;2023-05-10T12:12:38;7.53;;;5.53;;
60016;SDS011;45869;52.698;6.210;2023-05-10T12:15:09;8.18;;;6.05;;
60016;SDS011;45869;52.698;6.210;2023-05-10T12:17:37;8.15;;;6.22;;
60016;SDS011;45869;52.698;6.210;2023-05-10T12:20:19;9.70;;;6.50;;
60016;SDS011;45869;52.698;6.210;2023-05-10T12:22:50;7.93;;;6.22;;
60016;SDS011;45869;52.698;6.210;2023-05-10T12:25:17;9.13;;;6.28;;
60016;SDS011;45869;52.698;6.210;2023-05-10T12:27:53;9.40;;;6.95;;
60016;SDS011;45869;52.698;6.210;2023-05-10T12:30:26;10.07;;;6.65;;
60016;SDS011;45869;52.698;6.210;2023-05-10T12:32:52;9.30;;;6.50;;
60016;SDS011;45869;52.698;6.210;2023-05-10T12:35:19;8.52;;;6.43;;
60016;SDS011;45869;52.698;6.210;2023-05-10T12:37:49;7.85;;;6.55;;
60016;SDS011;45869;52.698;6.210;2023-05-10T12:40:16;8.55;;;5.97;;
60016;SDS011;45869;52.698;6.210;2023-05-10T12:42:42;7.88;;;5.88;;
60016;SDS011;45869;52.698;6.210;2023-05-10T12:45:11;8.65;;;5.82;;
60016;SDS011;45869;52.698;6.210;2023-05-10T12:47:38;8.82;;;6.00;;
60016;SDS011;45869;52.698;6.210;2023-05-10T12:50:06;7.30;;;5.57;;
60016;SDS011;45869;52.698;6.210;2023-05-10T12:52:33;7.93;;;5.95;;
60016;SDS011;45869;52.698;6.210;2023-05-10T12:55:02;8.65;;;5.65;;
60016;SDS011;45869;52.698;6.210;2023-05-10T12:57:28;8.35;;;5.57;;
60016;SDS011;45869;52.698;6.210;2023-05-10T12:59:54;6.97;;;5.22;;
60016;SDS011;45869;52.698;6.210;2023-05-10T13:02:20;9.02;;;5.70;;
60016;SDS011;45869;52.698;6.210;2023-05-10T13:04:48;7.93;;;5.85;;
60016;SDS011;45869;52.698;6.210;2023-05-10T13:07:14;8.10;;;5.93;;
60016;SDS011;45869;52.698;6.210;2023-05-10T13:09:40;10.38;;;6.63;;
60016;SDS011;45869;52.698;6.210;2023-05-10T13:12:06;11.00;;;6.82;;
60016;SDS011;45869;52.698;6.210;2023-05-10T13:14:32;11.02;;;7.05;;
60016;SDS011;45869;52.698;6.210;2023-05-10T13:16:58;11.50;;;7.10;;
60016;SDS011;45869;52.698;6.210;2023-05-10T13:19:24;11.07;;;7.07;;
60016;SDS011;45869;52.698;6.210;2023-05-10T13:21:50;8.80;;;6.57;;
60016;SDS011;45869;52.698;6.210;2023-05-10T13:24:19;10.75;;;6.82;;
60016;SDS011;45869;52.698;6.210;2023-05-10T13:26:45;10.25;;;6.55;;
60016;SDS011;45869;52.698;6.210;2023-05-10T13:29:11;9.07;;;6.60;;
60016;SDS011;45869;52.698;6.210;2023-05-10T13:31:37;9.10;;;7.00;;
60016;SDS011;45869;52.698;6.210;2023-05-10T13:34:03;8.90;;;6.88;;
60016;SDS011;45869;52.698;6.210;2023-05-10T13:36:32;10.48;;;6.75;;
60016;SDS011;45869;52.698;6.210;2023-05-10T13:39:01;9.60;;;6.97;;
60016;SDS011;45869;52.698;6.210;2023-05-10T13:41:28;10.13;;;7.10;;
60016;SDS011;45869;52.698;6.210;2023-05-10T13:43:54;10.55;;;7.10;;
60016;SDS011;45869;52.698;6.210;2023-05-10T13:46:20;10.18;;;6.45;;
60016;SDS011;45869;52.698;6.210;2023-05-10T13:48:46;9.32;;;6.80;;
60016;SDS011;45869;52.698;6.210;2023-05-10T13:51:12;11.00;;;7.20;;
60016;SDS011;45869;52.698;6.210;2023-05-10T13:53:38;9.18;;;6.10;;
60016;SDS011;45869;52.698;6.210;2023-05-10T13:56:07;9.95;;;6.65;;
60016;SDS011;45869;52.698;6.210;2023-05-10T13:58:33;10.68;;;6.72;;
60016;SDS011;45869;52.698;6.210;2023-05-10T14:01:00;9.75;;;6.80;;
60016;SDS011;45869;52.698;6.210;2023-05-10T14:03:26;9.88;;;6.35;;
60016;SDS011;45869;52.698;6.210;2023-05-10T14:05:55;9.98;;;6.18;;
60016;SDS011;45869;52.698;6.210;2023-05-10T14:08:21;9.68;;;5.93;;
60016;SDS011;45869;52.698;6.210;2023-05-10T14:10:47;8.80;;;5.43;;
60016;SDS011;45869;52.698;6.210;2023-05-10T14:13:14;9.05;;;6.50;;
60016;SDS011;45869;52.698;6.210;2023-05-10T14:15:40;8.05;;;5.68;;
60016;SDS011;45869;52.698;6.210;2023-05-10T14:18:06;8.60;;;6.07;;
60016;SDS011;45869;52.698;6.210;2023-05-10T14:20:32;11.05;;;5.82;;
60016;SDS011;45869;52.698;6.210;2023-05-10T14:22:59;8.65;;;5.85;;
60016;SDS011;45869;52.698;6.210;2023-05-10T14:25:25;8.15;;;5.22;;
60016;SDS011;45869;52.698;6.210;2023-05-10T14:27:54;7.47;;;5.60;;
60016;SDS011;45869;52.698;6.210;2023-05-10T14:30:20;8.98;;;5.90;;
60016;SDS011;45869;52.698;6.210;2023-05-10T14:32:46;9.95;;;5.40;;
60016;SDS011;45869;52.698;6.210;2023-05-10T14:35:12;8.55;;;5.50;;
60016;SDS011;45869;52.698;6.210;2023-05-10T14:37:38;7.13;;;4.88;;
60016;SDS011;45869;52.698;6.210;2023-05-10T14:40:05;8.15;;;5.10;;
60016;SDS011;45869;52.698;6.210;2023-05-10T14:42:32;8.82;;;5.38;;
60016;SDS011;45869;52.698;6.210;2023-05-10T14:44:58;7.45;;;4.93;;
60016;SDS011;45869;52.698;6.210;2023-05-10T14:47:24;7.80;;;5.55;;
60016;SDS011;45869;52.698;6.210;2023-05-10T14:49:50;8.50;;;5.00;;
60016;SDS011;45869;52.698;6.210;2023-05-10T14:52:16;8.38;;;6.03;;
60016;SDS011;45869;52.698;6.210;2023-05-10T14:54:42;7.93;;;5.10;;
60016;SDS011;45869;52.698;6.210;2023-05-10T14:57:08;7.85;;;5.10;;
60016;SDS011;45869;52.698;6.210;2023-05-10T14:59:34;7.13;;;5.05;;
60016;SDS011;45869;52.698;6.210;2023-05-10T15:02:00;8.27;;;4.80;;
60016;SDS011;45869;52.698;6.210;2023-05-10T15:04:26;6.82;;;4.75;;
60016;SDS011;45869;52.698;6.210;2023-05-10T15:06:55;7.57;;;4.70;;
60016;SDS011;45869;52.698;6.210;2023-05-10T15:09:24;7.47;;;4.55;;
60016;SDS011;45869;52.698;6.210;2023-05-10T15:11:53;6.40;;;4.53;;
60016;SDS011;45869;52.698;6.210;2023-05-10T15:14:19;6.57;;;4.38;;
60016;SDS011;45869;52.698;6.210;2023-05-10T15:16:45;6.18;;;4.45;;
60016;SDS011;45869;52.698;6.210;2023-05-10T15:19:11;5.78;;;3.97;;
60016;SDS011;45869;52.698;6.210;2023-05-10T15:21:37;7.57;;;4.30;;
60016;SDS011;45869;52.698;6.210;2023-05-10T15:24:07;7.15;;;4.38;;
60016;SDS011;45869;52.698;6.210;2023-05-10T15:26:33;6.60;;;4.07;;
60016;SDS011;45869;52.698;6.210;2023-05-10T15:28:59;6.25;;;3.80;;